createdAt,value
2018-06-13T00:00:14.209Z,97156.17
2018-06-13T00:00:45.813Z,97160.45
2018-06-13T00:01:17.397Z,97157.91
2018-06-13T00:01:49.378Z,97156.22
2018-06-13T00:02:21.012Z,97161.75
2018-06-13T00:02:52.589Z,97155.03
2018-06-13T00:03:24.176Z,97154.13
2018-06-13T00:03:55.781Z,97157.14
2018-06-13T00:04:27.365Z,97155.02
2018-06-13T00:04:58.936Z,97153.39
2018-06-13T00:05:30.538Z,97154.16
2018-06-13T00:06:02.153Z,97153.30
2018-06-13T00:06:33.789Z,97151.59
2018-06-13T00:07:05.364Z,97152.04
2018-06-13T00:07:36.947Z,97149.92
2018-06-13T00:08:08.533Z,97149.13
2018-06-13T00:08:40.109Z,97142.77
2018-06-13T00:09:11.677Z,97148.73
2018-06-13T00:09:43.261Z,97143.64
2018-06-13T00:10:14.918Z,97151.31
2018-06-13T00:10:46.522Z,97147.11
2018-06-13T00:11:18.125Z,97151.82
2018-06-13T00:11:49.713Z,97145.51
2018-06-13T00:12:21.313Z,97146.73
2018-06-13T00:12:52.924Z,97148.06
2018-06-13T00:13:24.515Z,97147.66
2018-06-13T00:14:01.741Z,97149.81
2018-06-13T00:14:33.339Z,97148.59
2018-06-13T00:15:04.949Z,97151.17
2018-06-13T00:15:36.553Z,97151.66
2018-06-13T00:16:08.137Z,97147.84
2018-06-13T00:16:39.727Z,97152.55
2018-06-13T00:17:11.322Z,97155.53
2018-06-13T00:17:42.929Z,97153.39
2018-06-13T00:18:14.549Z,97155.92
2018-06-13T00:18:46.125Z,97148.21
2018-06-13T00:19:17.691Z,97152.88
2018-06-13T00:19:49.279Z,97148.59
2018-06-13T00:20:20.881Z,97152.42
2018-06-13T00:20:52.465Z,97146.45
2018-06-13T00:21:24.045Z,97141.44
2018-06-13T00:21:55.626Z,97142.30
2018-06-13T00:22:27.226Z,97147.83
2018-06-13T00:22:58.861Z,97146.59
2018-06-13T00:23:30.540Z,97147.08
2018-06-13T00:24:02.126Z,97143.70
2018-06-13T00:24:33.706Z,97140.80
2018-06-13T00:25:05.276Z,97143.37
2018-06-13T00:25:36.861Z,97139.98
2018-06-13T00:26:08.545Z,97147.20
2018-06-13T00:26:40.116Z,97144.23
2018-06-13T00:27:11.694Z,97141.70
2018-06-13T00:27:43.302Z,97137.45
2018-06-13T00:28:14.917Z,97137.45
2018-06-13T00:28:46.534Z,97142.17
2018-06-13T00:29:18.141Z,97137.94
2018-06-13T00:29:49.753Z,97137.95
2018-06-13T00:30:21.343Z,97138.38
2018-06-13T00:30:52.945Z,97138.34
2018-06-13T00:31:24.540Z,97138.28
2018-06-13T00:31:56.112Z,97142.08
2018-06-13T00:32:27.688Z,97137.41
2018-06-13T00:32:59.269Z,97140.82
2018-06-13T00:33:30.875Z,97135.31
2018-06-13T00:34:02.447Z,97139.20
2018-06-13T00:34:34.016Z,97142.20
2018-06-13T00:35:05.689Z,97141.00
2018-06-13T00:35:37.298Z,97143.48
2018-06-13T00:36:08.882Z,97142.65
2018-06-13T00:36:40.484Z,97142.28
2018-06-13T00:37:12.116Z,97136.34
2018-06-13T00:37:43.697Z,97141.88
2018-06-13T00:38:15.304Z,97141.06
2018-06-13T00:38:46.941Z,97142.41
2018-06-13T00:39:18.542Z,97139.92
2018-06-13T00:39:50.140Z,97139.45
2018-06-13T00:40:21.720Z,97146.31
2018-06-13T00:40:53.301Z,97142.92
2018-06-13T00:41:24.901Z,97142.09
2018-06-13T00:41:56.514Z,97140.88
2018-06-13T00:42:28.116Z,97140.48
2018-06-13T00:42:59.697Z,97141.33
2018-06-13T00:43:31.297Z,97142.09
2018-06-13T00:44:02.946Z,97139.02
2018-06-13T00:44:34.538Z,97128.76
2018-06-13T00:45:06.105Z,97138.91
2018-06-13T00:45:37.686Z,97136.77
2018-06-13T00:46:09.270Z,97141.46
2018-06-13T00:46:40.882Z,97140.16
2018-06-13T00:47:12.470Z,97144.86
2018-06-13T00:47:44.054Z,97136.77
2018-06-13T00:48:15.638Z,97146.86
2018-06-13T00:48:47.228Z,97143.40
2018-06-13T00:49:18.852Z,97140.82
2018-06-13T00:49:50.426Z,97143.78
2018-06-13T00:50:22.003Z,97146.28
2018-06-13T00:50:53.605Z,97144.16
2018-06-13T00:51:25.180Z,97136.98
2018-06-13T00:51:56.761Z,97140.89
2018-06-13T00:52:28.337Z,97142.61
2018-06-13T00:52:59.921Z,97144.77
2018-06-13T00:53:31.511Z,97141.35
2018-06-13T00:54:03.093Z,97144.36
2018-06-13T00:54:34.691Z,97140.16
2018-06-13T00:55:06.281Z,97141.44
2018-06-13T00:55:37.876Z,97137.21
2018-06-13T00:56:09.458Z,97141.97
2018-06-13T00:56:41.066Z,97139.44
2018-06-13T00:57:12.645Z,97139.88
2018-06-13T00:57:44.229Z,97140.71
2018-06-13T00:58:15.800Z,97136.86
2018-06-13T00:58:47.390Z,97139.44
2018-06-13T00:59:18.978Z,97138.27
2018-06-13T00:59:50.602Z,97144.18
2018-06-13T01:00:22.209Z,97138.70
2018-06-13T01:00:53.789Z,97137.39
2018-06-13T01:01:25.369Z,97139.11
2018-06-13T01:01:56.944Z,97145.98
2018-06-13T01:02:28.512Z,97140.45
2018-06-13T01:03:00.104Z,97136.64
2018-06-13T01:03:31.689Z,97138.32
2018-06-13T01:04:03.269Z,97138.77
2018-06-13T01:04:34.849Z,97135.37
2018-06-13T01:05:07.497Z,97131.12
2018-06-13T01:05:39.105Z,97134.55
2018-06-13T01:06:10.694Z,97129.07
2018-06-13T01:06:42.297Z,97112.89
2018-06-13T01:07:13.964Z,97130.34
2018-06-13T01:07:45.565Z,97135.91
2018-06-13T01:08:17.139Z,97130.48
2018-06-13T01:08:48.717Z,97135.13
2018-06-13T01:09:20.293Z,97133.43
2018-06-13T01:09:51.904Z,97134.29
2018-06-13T01:10:23.496Z,97139.81
2018-06-13T01:10:55.101Z,97135.56
2018-06-13T01:11:26.691Z,97129.64
2018-06-13T01:11:58.273Z,97131.30
2018-06-13T01:12:29.873Z,97141.09
2018-06-13T01:13:01.464Z,97134.29
2018-06-13T01:13:33.073Z,97127.99
2018-06-13T01:14:04.672Z,97138.14
2018-06-13T01:14:36.259Z,97129.62
2018-06-13T01:15:07.896Z,97129.69
2018-06-13T01:15:39.464Z,97124.16
2018-06-13T01:16:11.046Z,97125.86
2018-06-13T01:16:42.654Z,97128.83
2018-06-13T01:17:14.224Z,97128.41
2018-06-13T01:17:45.805Z,97130.55
2018-06-13T01:18:17.398Z,97130.11
2018-06-13T01:18:48.992Z,97121.63
2018-06-13T01:19:20.597Z,97122.06
2018-06-13T01:19:52.201Z,97122.92
2018-06-13T01:20:23.844Z,97122.09
2018-06-13T01:20:55.436Z,97129.84
2018-06-13T01:21:27.046Z,97128.08
2018-06-13T01:21:58.661Z,97125.98
2018-06-13T01:22:30.245Z,97129.82
2018-06-13T01:23:01.830Z,97130.64
2018-06-13T01:23:33.423Z,97134.00
2018-06-13T01:24:04.991Z,97121.63
2018-06-13T01:24:36.574Z,97126.30
2018-06-13T01:25:08.153Z,97129.71
2018-06-13T01:25:39.800Z,97128.45
2018-06-13T01:26:11.410Z,97126.75
2018-06-13T01:26:42.984Z,97128.03
2018-06-13T01:27:14.590Z,97131.45
2018-06-13T01:27:46.178Z,97126.81
2018-06-13T01:28:17.762Z,97128.96
2018-06-13T01:28:49.465Z,97131.52
2018-06-13T01:29:21.054Z,97127.77
2018-06-13T01:29:52.650Z,97128.94
2018-06-13T01:30:24.252Z,97129.75
2018-06-13T01:30:55.906Z,97121.70
2018-06-13T01:31:27.509Z,97125.13
2018-06-13T01:31:59.080Z,97130.66
2018-06-13T01:32:30.648Z,97131.53
2018-06-13T01:33:02.230Z,97130.67
2018-06-13T01:33:33.810Z,97129.40
2018-06-13T01:34:05.380Z,97129.03
2018-06-13T01:34:36.997Z,97123.08
2018-06-13T01:35:08.587Z,97126.50
2018-06-13T01:35:40.196Z,97127.37
2018-06-13T01:36:11.818Z,97128.63
2018-06-13T01:36:43.398Z,97125.20
2018-06-13T01:37:15.002Z,97125.20
2018-06-13T01:37:46.596Z,97128.98
2018-06-13T01:38:18.170Z,97125.15
2018-06-13T01:38:49.760Z,97121.76
2018-06-13T01:39:21.332Z,97123.17
2018-06-13T01:39:52.913Z,97124.36
2018-06-13T01:40:24.516Z,97127.39
2018-06-13T01:40:56.112Z,97131.22
2018-06-13T01:41:27.766Z,97125.33
2018-06-13T01:41:59.377Z,97130.89
2018-06-13T01:42:30.976Z,97121.61
2018-06-13T01:43:02.556Z,97127.98
2018-06-13T01:43:34.161Z,97121.17
2018-06-13T01:44:05.747Z,97123.73
2018-06-13T01:44:37.325Z,97119.91
2018-06-13T01:45:08.904Z,97127.55
2018-06-13T01:45:40.485Z,97128.39
2018-06-13T01:46:12.056Z,97122.87
2018-06-13T01:46:43.682Z,97126.28
2018-06-13T01:47:15.260Z,97125.02
2018-06-13T01:47:46.875Z,97125.42
2018-06-13T01:48:18.457Z,97119.62
2018-06-13T01:48:50.045Z,97125.84
2018-06-13T01:49:21.646Z,97130.95
2018-06-13T01:49:53.316Z,97123.36
2018-06-13T01:50:24.910Z,97125.91
2018-06-13T01:50:56.489Z,97125.49
2018-06-13T01:51:28.093Z,97122.92
2018-06-13T01:51:59.718Z,97126.28
2018-06-13T01:52:31.297Z,97126.33
2018-06-13T01:53:02.889Z,97124.22
2018-06-13T01:53:34.506Z,97127.64
2018-06-13T01:54:06.095Z,97128.08
2018-06-13T01:54:37.697Z,97127.27
2018-06-13T01:55:09.291Z,97122.98
2018-06-13T01:55:40.873Z,97128.97
2018-06-13T01:56:12.453Z,97123.47
2018-06-13T01:56:49.774Z,97126.87
2018-06-13T01:57:27.292Z,97124.34
2018-06-13T01:58:04.479Z,97130.38
2018-06-13T01:58:41.757Z,97125.36
2018-06-13T01:59:19.065Z,97124.02
2018-06-13T01:59:50.660Z,97128.33
2018-06-13T02:00:22.265Z,97132.95
2018-06-13T02:00:53.874Z,97129.12
2018-06-13T02:01:25.472Z,97131.72
2018-06-13T02:01:57.074Z,97130.05
2018-06-13T02:02:28.689Z,97126.63
2018-06-13T02:03:00.280Z,97124.61
2018-06-13T02:03:31.885Z,97130.06
2018-06-13T02:04:03.465Z,97125.39
2018-06-13T02:04:35.046Z,97127.09
2018-06-13T02:05:06.647Z,97122.84
2018-06-13T02:05:38.238Z,97123.75
2018-06-13T02:06:09.814Z,97122.89
2018-06-13T02:06:41.411Z,97127.16
2018-06-13T02:07:13.018Z,97121.63
2018-06-13T02:07:44.633Z,97121.67
2018-06-13T02:08:16.237Z,97123.42
2018-06-13T02:08:47.849Z,97123.45
2018-06-13T02:09:19.429Z,97120.55
2018-06-13T02:09:51.003Z,97121.83
2018-06-13T02:10:22.601Z,97119.69
2018-06-13T02:10:54.173Z,97118.02
2018-06-13T02:11:25.778Z,97115.48
2018-06-13T02:11:57.381Z,97118.52
2018-06-13T02:12:29.017Z,97118.94
2018-06-13T02:13:00.635Z,97117.66
2018-06-13T02:13:32.226Z,97117.75
2018-06-13T02:14:03.842Z,97114.38
2018-06-13T02:14:35.432Z,97116.93
2018-06-13T02:15:07.001Z,97117.42
2018-06-13T02:15:38.605Z,97117.84
2018-06-13T02:16:10.189Z,97120.39
2018-06-13T02:16:41.758Z,97119.13
2018-06-13T02:17:13.353Z,97119.12
2018-06-13T02:17:45.004Z,97122.95
2018-06-13T02:18:16.633Z,97116.09
2018-06-13T02:18:48.204Z,97123.61
2018-06-13T02:19:19.771Z,97119.61
2018-06-13T02:19:51.373Z,97117.84
2018-06-13T02:20:22.957Z,97119.95
2018-06-13T02:20:54.538Z,97124.64
2018-06-13T02:21:26.112Z,97123.42
2018-06-13T02:21:57.680Z,97123.78
2018-06-13T02:22:29.252Z,97117.45
2018-06-13T02:23:00.820Z,97126.41
2018-06-13T02:23:32.461Z,97153.56
2018-06-13T02:24:04.077Z,97133.54
2018-06-13T02:24:35.667Z,97126.30
2018-06-13T02:25:07.244Z,97132.27
2018-06-13T02:25:38.845Z,97130.61
2018-06-13T02:26:10.449Z,97130.23
2018-06-13T02:26:42.265Z,97130.25
2018-06-13T02:27:13.885Z,97126.06
2018-06-13T02:27:45.470Z,97127.33
2018-06-13T02:28:17.058Z,97124.81
2018-06-13T02:28:48.681Z,97123.61
2018-06-13T02:29:20.257Z,97126.59
2018-06-13T02:29:51.824Z,97124.06
2018-06-13T02:30:23.406Z,97123.23
2018-06-13T02:30:54.981Z,97125.36
2018-06-13T02:31:26.574Z,97128.37
2018-06-13T02:31:58.158Z,97125.86
2018-06-13T02:32:29.734Z,97130.13
2018-06-13T02:33:01.333Z,97130.19
2018-06-13T02:33:32.937Z,97128.91
2018-06-13T02:34:04.558Z,97125.95
2018-06-13T02:34:36.164Z,97136.60
2018-06-13T02:35:07.736Z,97132.84
2018-06-13T02:35:39.337Z,97131.08
2018-06-13T02:36:10.944Z,97134.06
2018-06-13T02:36:42.526Z,97133.26
2018-06-13T02:37:14.133Z,97129.43
2018-06-13T02:37:45.725Z,97131.91
2018-06-13T02:38:17.315Z,97133.19
2018-06-13T02:38:48.907Z,97132.34
2018-06-13T02:39:20.547Z,97131.94
2018-06-13T02:39:52.159Z,97126.45
2018-06-13T02:40:23.747Z,97128.61
2018-06-13T02:40:55.315Z,97132.86
2018-06-13T02:41:26.913Z,97126.08
2018-06-13T02:41:58.487Z,97132.92
2018-06-13T02:42:30.084Z,97117.91
2018-06-13T02:43:01.677Z,97125.27
2018-06-13T02:43:33.290Z,97121.96
2018-06-13T02:44:04.865Z,97127.40
2018-06-13T02:44:36.485Z,97127.40
2018-06-13T02:45:08.051Z,97129.95
2018-06-13T02:45:39.630Z,97127.77
2018-06-13T02:46:11.234Z,97134.98
2018-06-13T02:46:42.842Z,97132.00
2018-06-13T02:47:14.426Z,97127.75
2018-06-13T02:47:46.001Z,97127.42
2018-06-13T02:48:17.590Z,97129.55
2018-06-13T02:48:49.169Z,97127.44
2018-06-13T02:49:20.769Z,97123.70
2018-06-13T02:49:52.380Z,97128.01
2018-06-13T02:50:23.961Z,97122.42
2018-06-13T02:50:55.613Z,97123.70
2018-06-13T02:51:27.188Z,97130.72
2018-06-13T02:51:58.778Z,97127.33
2018-06-13T02:52:30.396Z,97126.83
2018-06-13T02:53:02.006Z,97134.06
2018-06-13T02:53:33.590Z,97125.20
2018-06-13T02:54:05.188Z,97133.19
2018-06-13T02:54:36.798Z,97137.02
2018-06-13T02:55:08.433Z,97133.63
2018-06-13T02:55:40.038Z,97135.34
2018-06-13T02:56:11.635Z,97134.11
2018-06-13T02:56:43.238Z,97134.95
2018-06-13T02:57:14.817Z,97131.12
2018-06-13T02:57:46.412Z,97140.08
2018-06-13T02:58:18.008Z,97138.03
2018-06-13T02:58:49.593Z,97142.75
2018-06-13T02:59:21.170Z,97139.36
2018-06-13T02:59:52.754Z,97141.47
2018-06-13T03:00:24.362Z,97136.80
2018-06-13T03:00:55.937Z,97145.30
2018-06-13T03:01:27.530Z,97143.06
2018-06-13T03:01:59.111Z,97136.91
2018-06-13T03:02:30.690Z,97139.70
2018-06-13T03:03:02.270Z,97140.80
2018-06-13T03:03:33.882Z,97145.80
2018-06-13T03:04:05.464Z,97140.66
2018-06-13T03:04:37.045Z,97141.45
2018-06-13T03:05:08.626Z,97139.24
2018-06-13T03:05:40.245Z,97138.37
2018-06-13T03:06:11.845Z,97139.66
2018-06-13T03:06:43.424Z,97138.44
2018-06-13T03:07:15.034Z,97138.45
2018-06-13T03:07:46.622Z,97142.30
2018-06-13T03:08:18.202Z,97137.70
2018-06-13T03:08:49.804Z,97137.35
2018-06-13T03:09:21.409Z,97138.69
2018-06-13T03:09:53.012Z,97135.80
2018-06-13T03:10:24.598Z,97143.98
2018-06-13T03:10:56.173Z,97141.14
2018-06-13T03:11:27.747Z,97139.12
2018-06-13T03:11:59.355Z,97141.77
2018-06-13T03:12:30.932Z,97140.18
2018-06-13T03:13:02.513Z,97142.73
2018-06-13T03:13:34.085Z,97147.91
2018-06-13T03:14:05.660Z,97139.86
2018-06-13T03:14:37.245Z,97148.44
2018-06-13T03:15:08.839Z,97145.91
2018-06-13T03:15:40.446Z,97145.92
2018-06-13T03:16:12.059Z,97146.34
2018-06-13T03:16:43.637Z,97145.89
2018-06-13T03:17:15.205Z,97143.76
2018-06-13T03:17:46.812Z,97145.88
2018-06-13T03:18:18.409Z,97146.27
2018-06-13T03:18:50.014Z,97144.98
2018-06-13T03:19:21.589Z,97149.28
2018-06-13T03:19:53.193Z,97147.08
2018-06-13T03:20:24.802Z,97145.70
2018-06-13T03:20:56.495Z,97151.94
2018-06-13T03:21:28.065Z,97148.92
2018-06-13T03:21:59.660Z,97152.69
2018-06-13T03:22:31.266Z,97145.43
2018-06-13T03:23:02.854Z,97151.80
2018-06-13T03:23:34.439Z,97149.66
2018-06-13T03:24:06.038Z,97146.25
2018-06-13T03:24:37.622Z,97148.82
2018-06-13T03:25:09.201Z,97144.59
2018-06-13T03:25:40.781Z,97145.09
2018-06-13T03:26:12.394Z,97143.89
2018-06-13T03:26:43.960Z,97139.66
2018-06-13T03:27:15.541Z,97144.41
2018-06-13T03:27:47.141Z,97146.08
2018-06-13T03:28:18.735Z,97145.28
2018-06-13T03:28:50.321Z,97149.55
2018-06-13T03:29:21.888Z,97153.02
2018-06-13T03:29:53.470Z,97150.93
2018-06-13T03:30:25.054Z,97146.34
2018-06-13T03:30:56.647Z,97150.98
2018-06-13T03:31:28.278Z,97147.54
2018-06-13T03:31:59.877Z,97149.28
2018-06-13T03:32:31.485Z,97153.13
2018-06-13T03:33:03.094Z,97152.31
2018-06-13T03:33:34.710Z,97156.99
2018-06-13T03:34:06.313Z,97144.70
2018-06-13T03:34:37.925Z,97152.36
2018-06-13T03:35:09.509Z,97154.07
2018-06-13T03:35:41.090Z,97154.48
2018-06-13T03:36:12.697Z,97150.26
2018-06-13T03:36:44.344Z,97154.50
2018-06-13T03:37:15.919Z,97152.38
2018-06-13T03:37:47.519Z,97151.11
2018-06-13T03:38:19.112Z,97154.10
2018-06-13T03:38:50.736Z,97135.38
2018-06-13T03:39:22.350Z,97158.00
2018-06-13T03:39:53.957Z,97147.03
2018-06-13T03:40:25.543Z,97156.37
2018-06-13T03:40:57.112Z,97152.98
2018-06-13T03:41:28.689Z,97155.11
2018-06-13T03:42:00.326Z,97152.96
2018-06-13T03:42:31.947Z,97150.42
2018-06-13T03:43:03.544Z,97150.41
2018-06-13T03:43:35.133Z,97152.16
2018-06-13T03:44:06.710Z,97153.44
2018-06-13T03:44:38.309Z,97152.59
2018-06-13T03:45:09.909Z,97155.20
2018-06-13T03:45:41.484Z,97154.77
2018-06-13T03:46:13.066Z,97156.42
2018-06-13T03:46:44.649Z,97156.05
2018-06-13T03:47:16.297Z,97155.14
2018-06-13T03:47:47.906Z,97156.84
2018-06-13T03:48:19.493Z,97157.23
2018-06-13T03:48:51.060Z,97154.61
2018-06-13T03:49:22.656Z,97157.98
2018-06-13T03:49:54.238Z,97157.49
2018-06-13T03:50:25.840Z,97156.64
2018-06-13T03:50:57.425Z,97161.28
2018-06-13T03:51:28.992Z,97159.55
2018-06-13T03:52:00.606Z,97161.73
2018-06-13T03:52:32.260Z,97162.52
2018-06-13T03:53:03.855Z,97160.81
2018-06-13T03:53:35.437Z,97163.84
2018-06-13T03:54:07.045Z,97158.75
2018-06-13T03:54:38.620Z,97167.27
2018-06-13T03:55:10.215Z,97165.59
2018-06-13T03:55:41.829Z,97167.34
2018-06-13T03:56:13.408Z,97165.66
2018-06-13T03:56:45.005Z,97169.08
2018-06-13T03:57:16.593Z,97160.63
2018-06-13T03:57:48.213Z,97163.64
2018-06-13T03:58:19.813Z,97162.03
2018-06-13T03:58:51.397Z,97132.06
2018-06-13T03:59:22.973Z,97165.85
2018-06-13T03:59:54.563Z,97163.73
2018-06-13T04:00:26.177Z,97166.36
2018-06-13T04:00:57.777Z,97165.95
2018-06-13T04:01:29.385Z,97162.96
2018-06-13T04:02:00.964Z,97168.48
2018-06-13T04:02:32.542Z,97165.09
2018-06-13T04:03:04.112Z,97167.65
2018-06-13T04:03:36.705Z,97168.55
2018-06-13T04:04:08.289Z,97168.98
2018-06-13T04:04:40.701Z,97162.20
2018-06-13T04:05:12.281Z,97166.86
2018-06-13T04:05:43.889Z,97165.20
2018-06-13T04:06:15.505Z,97164.30
2018-06-13T04:06:47.096Z,97166.81
2018-06-13T04:07:18.723Z,97169.41
2018-06-13T04:07:50.262Z,97166.02
2018-06-13T04:08:21.912Z,97161.35
2018-06-13T04:08:53.495Z,97163.05
2018-06-13T04:09:25.077Z,97165.66
2018-06-13T04:09:56.654Z,97158.88
2018-06-13T04:10:28.269Z,97161.86
2018-06-13T04:10:59.859Z,97159.22
2018-06-13T04:11:31.442Z,97161.69
2018-06-13T04:12:03.022Z,97159.13
2018-06-13T04:12:34.613Z,97161.61
2018-06-13T04:13:06.204Z,97164.58
2018-06-13T04:13:37.872Z,97170.95
2018-06-13T04:14:09.449Z,97167.09
2018-06-13T04:14:41.020Z,97164.96
2018-06-13T04:15:12.598Z,97172.22
2018-06-13T04:15:44.168Z,97167.95
2018-06-13T04:16:16.597Z,97164.98
2018-06-13T04:16:48.205Z,97169.16
2018-06-13T04:17:19.789Z,97165.13
2018-06-13T04:17:51.397Z,97171.26
2018-06-13T04:18:22.992Z,97162.14
2018-06-13T04:18:54.624Z,97160.66
2018-06-13T04:19:27.380Z,97162.58
2018-06-13T04:19:58.965Z,97160.37
2018-06-13T04:20:30.556Z,97160.34
2018-06-13T04:21:02.154Z,97164.62
2018-06-13T04:21:33.770Z,97162.52
2018-06-13T04:22:05.354Z,97157.08
2018-06-13T04:22:36.956Z,97160.98
2018-06-13T04:23:09.002Z,97161.05
2018-06-13T04:23:40.655Z,97164.47
2018-06-13T04:24:12.270Z,97158.17
2018-06-13T04:24:43.882Z,97157.79
2018-06-13T04:25:15.492Z,97151.88
2018-06-13T04:25:47.101Z,97155.70
2018-06-13T04:26:18.686Z,97157.79
2018-06-13T04:26:50.293Z,97157.79
2018-06-13T04:27:21.864Z,97148.05
2018-06-13T04:27:53.446Z,97154.03
2018-06-13T04:28:25.054Z,97151.55
2018-06-13T04:28:56.676Z,97151.55
2018-06-13T04:29:28.330Z,97154.97
2018-06-13T04:29:59.930Z,97155.41
2018-06-13T04:30:38.051Z,97158.47
2018-06-13T04:31:09.637Z,97157.22
2018-06-13T04:31:41.212Z,97157.22
2018-06-13T04:32:13.687Z,97149.98
2018-06-13T04:32:45.302Z,97157.20
2018-06-13T04:33:16.896Z,97154.66
2018-06-13T04:33:48.542Z,97158.13
2018-06-13T04:34:21.265Z,97157.29
2018-06-13T04:34:53.693Z,97159.41
2018-06-13T04:35:25.301Z,97155.58
2018-06-13T04:35:56.891Z,97153.88
2018-06-13T04:36:28.484Z,97152.63
2018-06-13T04:37:00.889Z,97157.73
2018-06-13T04:37:32.455Z,97160.28
2018-06-13T04:38:04.043Z,97153.90
2018-06-13T04:38:35.624Z,97155.58
2018-06-13T04:39:07.253Z,97156.44
2018-06-13T04:39:38.862Z,97156.44
2018-06-13T04:40:10.469Z,97160.09
2018-06-13T04:40:42.077Z,97154.20
2018-06-13T04:41:13.689Z,97156.86
2018-06-13T04:41:45.260Z,97154.84
2018-06-13T04:42:18.401Z,97160.09
2018-06-13T04:42:50.018Z,97154.62
2018-06-13T04:43:21.625Z,97156.83
2018-06-13T04:43:53.206Z,97157.77
2018-06-13T04:44:24.837Z,97155.73
2018-06-13T04:44:56.418Z,97157.92
2018-06-13T04:45:28.002Z,97154.55
2018-06-13T04:45:59.577Z,97154.20
2018-06-13T04:46:31.190Z,97161.03
2018-06-13T04:47:02.788Z,97162.78
2018-06-13T04:47:34.387Z,97153.09
2018-06-13T04:48:06.577Z,97157.28
2018-06-13T04:48:38.162Z,97162.81
2018-06-13T04:49:09.761Z,97158.38
2018-06-13T04:49:41.386Z,97162.27
2018-06-13T04:50:12.985Z,97163.39
2018-06-13T04:50:44.566Z,97163.78
2018-06-13T04:51:16.152Z,97161.63
2018-06-13T04:51:48.584Z,97159.28
2018-06-13T04:52:20.182Z,97165.91
2018-06-13T04:52:51.765Z,97162.19
2018-06-13T04:53:23.360Z,97162.20
2018-06-13T04:53:54.955Z,97163.03
2018-06-13T04:54:26.538Z,97159.63
2018-06-13T04:54:58.172Z,97162.64
2018-06-13T04:55:29.777Z,97163.19
2018-06-13T04:56:01.372Z,97162.41
2018-06-13T04:56:32.957Z,97168.94
2018-06-13T04:57:04.549Z,97166.20
2018-06-13T04:57:36.155Z,97169.41
2018-06-13T04:58:07.731Z,97167.14
2018-06-13T04:58:39.337Z,97165.67
2018-06-13T04:59:10.950Z,97171.04
2018-06-13T04:59:42.543Z,97172.61
2018-06-13T05:00:14.149Z,97172.47
2018-06-13T05:00:45.758Z,97165.97
2018-06-13T05:01:18.157Z,97172.27
2018-06-13T05:01:49.753Z,97166.27
2018-06-13T05:02:21.362Z,97162.78
2018-06-13T05:02:52.960Z,97169.48
2018-06-13T05:03:24.565Z,97174.56
2018-06-13T05:03:56.140Z,97165.97
2018-06-13T05:04:27.726Z,97173.56
2018-06-13T05:04:59.329Z,97172.27
2018-06-13T05:05:30.980Z,97171.41
2018-06-13T05:06:02.570Z,97167.06
2018-06-13T05:06:34.170Z,97168.77
2018-06-13T05:07:05.744Z,97167.38
2018-06-13T05:07:38.218Z,97168.19
2018-06-13T05:08:10.889Z,97147.24
2018-06-13T05:08:42.498Z,97169.80
2018-06-13T05:09:15.073Z,97173.19
2018-06-13T05:09:48.613Z,97173.13
2018-06-13T05:10:20.206Z,97174.83
2018-06-13T05:10:51.843Z,97175.67
2018-06-13T05:11:23.457Z,97169.70
2018-06-13T05:11:55.050Z,97168.42
2018-06-13T05:12:26.655Z,97172.23
2018-06-13T05:12:58.825Z,97170.91
2018-06-13T05:13:30.887Z,97170.91
2018-06-13T05:14:02.469Z,97174.73
2018-06-13T05:14:34.866Z,97176.44
2018-06-13T05:15:06.469Z,97173.02
2018-06-13T05:15:38.040Z,97175.54
2018-06-13T05:16:09.742Z,97175.91
2018-06-13T05:16:41.817Z,97177.58
2018-06-13T05:17:13.443Z,97181.34
2018-06-13T05:17:45.856Z,97177.84
2018-06-13T05:18:17.424Z,97178.58
2018-06-13T05:18:49.026Z,97176.83
2018-06-13T05:19:20.633Z,97181.79
2018-06-13T05:19:52.302Z,97175.34
2018-06-13T05:20:23.910Z,97179.95
2018-06-13T05:20:55.512Z,97182.41
2018-06-13T05:21:27.844Z,97178.50
2018-06-13T05:21:59.429Z,97180.62
2018-06-13T05:22:31.035Z,97177.57
2018-06-13T05:23:02.617Z,97177.57
2018-06-13T05:23:34.226Z,97183.90
2018-06-13T05:24:05.796Z,97178.73
2018-06-13T05:24:37.865Z,97181.27
2018-06-13T05:25:09.455Z,97175.41
2018-06-13T05:25:41.053Z,97177.92
2018-06-13T05:26:12.661Z,97184.34
2018-06-13T05:26:46.136Z,97181.77
2018-06-13T05:27:17.725Z,97182.63
2018-06-13T05:27:49.357Z,97179.27
2018-06-13T05:28:20.966Z,97178.36
2018-06-13T05:28:52.574Z,97175.83
2018-06-13T05:29:24.158Z,97177.03
2018-06-13T05:29:55.766Z,97177.02
2018-06-13T05:30:27.373Z,97177.85
2018-06-13T05:30:59.013Z,97185.55
2018-06-13T05:31:30.618Z,97180.48
2018-06-13T05:32:03.037Z,97177.09
2018-06-13T05:32:34.642Z,97184.34
2018-06-13T05:33:07.065Z,97185.64
2018-06-13T05:33:38.685Z,97180.95
2018-06-13T05:34:10.288Z,97181.36
2018-06-13T05:34:41.893Z,97181.80
2018-06-13T05:35:13.505Z,97183.90
2018-06-13T05:35:45.083Z,97183.48
2018-06-13T05:36:16.693Z,97181.28
2018-06-13T05:36:48.281Z,97185.94
2018-06-13T05:37:19.890Z,97186.36
2018-06-13T05:37:51.501Z,97189.36
2018-06-13T05:38:23.091Z,97186.80
2018-06-13T05:38:54.669Z,97188.08
2018-06-13T05:39:27.469Z,97182.13
2018-06-13T05:39:59.085Z,97182.56
2018-06-13T05:40:30.672Z,97186.45
2018-06-13T05:41:02.281Z,97184.34
2018-06-13T05:41:33.889Z,97181.02
2018-06-13T05:42:05.498Z,97183.08
2018-06-13T05:42:37.366Z,97186.50
2018-06-13T05:43:08.946Z,97183.52
2018-06-13T05:43:40.530Z,97190.33
2018-06-13T05:44:12.133Z,97189.08
2018-06-13T05:44:43.714Z,97188.27
2018-06-13T05:45:15.302Z,97191.28
2018-06-13T05:45:46.912Z,97193.42
2018-06-13T05:46:18.498Z,97188.75
2018-06-13T05:46:50.082Z,97187.14
2018-06-13T05:47:21.680Z,97190.10
2018-06-13T05:47:53.333Z,97188.90
2018-06-13T05:48:25.020Z,97190.55
2018-06-13T05:48:56.621Z,97189.28
2018-06-13T05:49:29.136Z,97187.63
2018-06-13T05:50:00.724Z,97190.58
2018-06-13T05:50:34.593Z,97191.44
2018-06-13T05:51:06.184Z,97192.72
2018-06-13T05:51:37.766Z,97187.19
2018-06-13T05:52:10.118Z,97190.60
2018-06-13T05:52:41.697Z,97191.44
2018-06-13T05:53:13.297Z,97189.75
2018-06-13T05:53:44.901Z,97189.33
2018-06-13T05:54:16.507Z,97194.44
2018-06-13T05:54:48.094Z,97187.63
2018-06-13T05:55:20.158Z,97196.58
2018-06-13T05:55:51.742Z,97194.86
2018-06-13T05:56:23.446Z,97196.13
2018-06-13T05:56:55.034Z,97196.55
2018-06-13T05:57:26.764Z,97195.28
2018-06-13T05:57:58.341Z,97189.30
2018-06-13T05:58:29.950Z,97198.23
2018-06-13T05:59:01.534Z,97198.23
2018-06-13T05:59:33.118Z,97194.40
2018-06-13T06:00:05.789Z,97195.66
2018-06-13T06:00:38.304Z,97193.16
2018-06-13T06:01:09.981Z,97195.23
2018-06-13T06:01:41.570Z,97198.19
2018-06-13T06:02:13.173Z,97196.89
2018-06-13T06:02:44.748Z,97193.09
2018-06-13T06:03:16.369Z,97193.92
2018-06-13T06:03:48.795Z,97190.96
2018-06-13T06:04:20.981Z,97193.50
2018-06-13T06:04:52.555Z,97192.66
2018-06-13T06:05:24.165Z,97194.78
2018-06-13T06:05:55.746Z,97195.61
2018-06-13T06:06:27.343Z,97196.05
2018-06-13T06:06:58.935Z,97196.08
2018-06-13T06:07:30.549Z,97194.34
2018-06-13T06:08:02.713Z,97201.11
2018-06-13T06:08:35.297Z,97196.00
2018-06-13T06:09:06.878Z,97201.16
2018-06-13T06:09:38.489Z,97203.67
2018-06-13T06:10:10.711Z,97198.12
2018-06-13T06:10:42.242Z,97199.81
2018-06-13T06:11:13.826Z,97199.81
2018-06-13T06:11:46.309Z,97196.41
2018-06-13T06:12:17.898Z,97199.38